createdAt,value
2017-05-15T00:01:51.478Z,4.28
2017-05-15T00:04:18.754Z,2.82
2017-05-15T00:06:46.088Z,2.68
2017-05-15T00:09:13.443Z,3.84
2017-05-15T00:11:40.729Z,3.50
2017-05-15T00:14:08.054Z,3.16
2017-05-15T00:16:34.998Z,2.94
2017-05-15T00:19:02.278Z,3.22
2017-05-15T00:21:29.617Z,3.04
2017-05-15T00:23:56.897Z,2.88
2017-05-15T00:26:24.217Z,4.70
2017-05-15T00:28:51.570Z,7.14
2017-05-15T00:31:18.854Z,2.58
2017-05-15T00:33:46.162Z,4.26
2017-05-15T00:36:13.478Z,3.92
2017-05-15T00:38:41.237Z,3.20
2017-05-15T00:41:08.527Z,7.44
2017-05-15T00:43:35.846Z,4.38
2017-05-15T00:46:03.130Z,3.44
2017-05-15T00:48:30.416Z,2.84
2017-05-15T00:50:57.871Z,2.54
2017-05-15T00:53:25.229Z,4.52
2017-05-15T00:55:52.587Z,2.56
2017-05-15T00:58:19.918Z,4.46
2017-05-15T01:00:47.304Z,3.26
2017-05-15T01:03:14.588Z,2.42
2017-05-15T01:05:41.937Z,2.36
2017-05-15T01:08:09.209Z,2.42
2017-05-15T01:10:37.025Z,2.20
2017-05-15T01:13:04.347Z,5.14
2017-05-15T01:15:31.633Z,2.10
2017-05-15T01:17:58.914Z,3.00
2017-05-15T01:20:26.226Z,4.50
2017-05-15T01:22:53.601Z,2.92
2017-05-15T01:25:20.926Z,2.38
2017-05-15T01:27:48.618Z,3.28
2017-05-15T01:30:15.511Z,3.64
2017-05-15T01:32:42.794Z,2.98
2017-05-15T01:35:09.721Z,2.82
2017-05-15T01:37:37.369Z,3.38
2017-05-15T01:40:04.649Z,3.12
2017-05-15T01:42:31.979Z,2.82
2017-05-15T01:44:59.262Z,3.30
2017-05-15T01:47:26.536Z,3.56
2017-05-15T01:49:53.467Z,3.42
2017-05-15T01:52:20.742Z,2.78
2017-05-15T01:54:48.042Z,2.46
2017-05-15T01:57:14.973Z,8.46
2017-05-15T01:59:42.263Z,2.40
2017-05-15T02:02:09.159Z,3.00
2017-05-15T02:04:36.484Z,3.42
2017-05-15T02:07:03.778Z,2.40
2017-05-15T02:09:31.058Z,2.78
2017-05-15T02:11:57.998Z,3.18
2017-05-15T02:14:25.283Z,2.58
2017-05-15T02:16:52.178Z,2.98
2017-05-15T02:19:19.512Z,4.24
2017-05-15T02:21:46.809Z,3.36
2017-05-15T02:24:14.099Z,2.66
2017-05-15T02:26:41.427Z,5.34
2017-05-15T02:29:09.078Z,3.34
2017-05-15T02:31:35.957Z,2.70
2017-05-15T02:34:03.276Z,5.28
2017-05-15T02:36:30.559Z,4.30
2017-05-15T02:38:57.833Z,4.48
2017-05-15T02:41:25.179Z,3.40
2017-05-15T02:43:52.458Z,3.28
2017-05-15T02:46:19.742Z,3.56
2017-05-15T02:48:47.070Z,3.64
2017-05-15T02:51:14.355Z,4.44
2017-05-15T02:53:41.637Z,2.68
2017-05-15T02:56:08.968Z,2.98
2017-05-15T02:58:36.250Z,3.44
2017-05-15T03:01:03.534Z,3.52
2017-05-15T03:03:30.868Z,2.70
2017-05-15T03:05:58.145Z,3.30
2017-05-15T03:08:25.426Z,3.76
2017-05-15T03:10:52.754Z,2.90
2017-05-15T03:13:20.038Z,4.12
2017-05-15T03:15:47.318Z,4.18
2017-05-15T03:18:15.036Z,3.86
2017-05-15T03:20:42.314Z,3.30
2017-05-15T03:23:09.599Z,3.34
2017-05-15T03:25:37.302Z,3.20
2017-05-15T03:28:04.581Z,2.74
2017-05-15T03:30:31.470Z,3.24
2017-05-15T03:32:58.398Z,2.54
2017-05-15T03:35:26.042Z,3.02
2017-05-15T03:37:52.924Z,2.42
2017-05-15T03:40:20.238Z,5.18
2017-05-15T03:42:47.503Z,3.08
2017-05-15T03:45:14.783Z,3.00
2017-05-15T03:47:41.704Z,2.72
2017-05-15T03:50:08.984Z,3.36
2017-05-15T03:52:35.865Z,3.16
2017-05-15T03:55:03.197Z,3.20
2017-05-15T03:57:30.477Z,2.40
2017-05-15T03:59:57.754Z,3.14
2017-05-15T04:02:24.704Z,5.10
2017-05-15T04:04:52.011Z,3.54
2017-05-15T04:07:19.287Z,3.24
2017-05-15T04:09:46.626Z,3.48
2017-05-15T04:12:13.902Z,4.48
2017-05-15T04:14:41.186Z,2.90
2017-05-15T04:17:08.534Z,2.94
2017-05-15T04:19:35.422Z,2.68
2017-05-15T04:22:02.701Z,2.76
2017-05-15T04:24:30.035Z,2.56
2017-05-15T04:26:57.316Z,3.08
2017-05-15T04:29:24.638Z,4.38
2017-05-15T04:31:51.966Z,4.62
2017-05-15T04:34:18.849Z,3.32
2017-05-15T04:36:46.125Z,4.12
2017-05-15T04:39:13.449Z,7.84
2017-05-15T04:41:40.354Z,3.04
2017-05-15T04:44:07.242Z,2.94
2017-05-15T04:46:34.570Z,3.54
2017-05-15T04:49:01.458Z,2.62
2017-05-15T04:51:28.745Z,2.62
2017-05-15T04:53:55.682Z,2.56
2017-05-15T04:56:22.966Z,3.54
2017-05-15T04:58:49.855Z,3.02
2017-05-15T05:01:17.170Z,3.18
2017-05-15T05:03:44.826Z,3.60
2017-05-15T05:06:12.490Z,2.80
2017-05-15T05:08:40.182Z,2.58
2017-05-15T05:11:07.457Z,3.84
2017-05-15T05:13:34.740Z,3.00
2017-05-15T05:16:02.065Z,3.70
2017-05-15T05:18:29.347Z,3.94
2017-05-15T05:21:18.455Z,3.68
2017-05-15T05:23:57.315Z,4.26
2017-05-15T05:26:36.653Z,4.16
2017-05-15T05:32:23.894Z,3.88
2017-05-15T05:35:01.224Z,3.00
2017-05-15T05:41:00.170Z,5.74
2017-05-15T05:43:45.394Z,2.94
2017-05-15T05:46:12.675Z,4.24
2017-05-15T05:48:39.561Z,7.94
2017-05-15T05:51:06.937Z,4.00
2017-05-15T05:53:33.815Z,5.02
2017-05-15T05:56:13.146Z,4.48
2017-05-15T05:58:40.036Z,4.86
2017-05-15T06:01:34.062Z,4.72
2017-05-15T06:04:13.111Z,4.62
2017-05-15T06:06:52.489Z,4.90
2017-05-15T06:09:31.645Z,4.44
2017-05-15T06:12:10.419Z,6.00
2017-05-15T06:14:49.643Z,6.20
2017-05-15T06:17:28.900Z,6.50
2017-05-15T06:19:55.685Z,5.18
2017-05-15T06:22:35.022Z,6.26
2017-05-15T06:25:25.866Z,6.20
2017-05-15T06:27:53.287Z,5.56
2017-05-15T06:30:20.566Z,4.58
2017-05-15T06:32:47.897Z,5.30
2017-05-15T06:35:15.246Z,5.50
2017-05-15T06:37:54.616Z,5.98
2017-05-15T06:40:33.875Z,5.46
2017-05-15T06:43:01.606Z,5.68
2017-05-15T06:45:28.941Z,7.34
2017-05-15T06:47:56.307Z,6.86
2017-05-15T06:50:23.649Z,6.98
2017-05-15T06:52:51.006Z,8.56
2017-05-15T06:55:18.361Z,8.96
2017-05-15T06:57:45.633Z,7.68
2017-05-15T07:00:12.926Z,8.46
2017-05-15T07:02:40.333Z,7.32
2017-05-15T07:05:07.690Z,7.58
2017-05-15T07:07:34.082Z,9.28
2017-05-15T07:10:01.766Z,7.72
2017-05-15T07:12:29.144Z,8.50
2017-05-15T07:14:56.436Z,8.00
2017-05-15T07:17:23.794Z,6.86
2017-05-15T07:19:51.057Z,8.28
2017-05-15T07:22:18.703Z,8.06
2017-05-15T07:24:46.022Z,7.30
2017-05-15T07:27:13.302Z,9.38
2017-05-15T07:29:40.641Z,8.42
2017-05-15T07:32:07.946Z,8.98
2017-05-15T07:34:35.649Z,10.24
2017-05-15T07:37:02.929Z,9.20
2017-05-15T07:39:30.259Z,9.30
2017-05-15T07:41:57.219Z,11.04
2017-05-15T07:44:24.565Z,9.98
2017-05-15T07:46:51.854Z,9.02
2017-05-15T07:49:19.270Z,9.00
2017-05-15T07:51:46.221Z,10.64
2017-05-15T07:54:13.578Z,10.26
2017-05-15T07:56:40.930Z,9.60
2017-05-15T07:59:08.238Z,9.70
2017-05-15T08:01:35.953Z,11.98
2017-05-15T08:04:03.265Z,9.36
2017-05-15T08:06:30.570Z,9.30
2017-05-15T08:08:57.842Z,10.48
2017-05-15T08:11:25.162Z,9.90
2017-05-15T08:13:52.525Z,9.48
2017-05-15T08:16:19.825Z,10.34
2017-05-15T08:18:47.240Z,10.68
2017-05-15T08:21:14.514Z,9.46
2017-05-15T08:23:41.787Z,9.56
2017-05-15T08:26:09.210Z,9.76
2017-05-15T08:28:36.562Z,8.92
2017-05-15T08:31:03.842Z,8.70
2017-05-15T08:33:31.157Z,9.10
2017-05-15T08:35:58.442Z,10.46
2017-05-15T08:38:25.717Z,8.54
2017-05-15T08:40:53.138Z,8.96
2017-05-15T08:43:20.494Z,9.32
2017-05-15T08:45:47.854Z,7.92
2017-05-15T08:48:15.201Z,7.84
2017-05-15T08:50:42.161Z,8.76
2017-05-15T08:53:09.510Z,7.56
2017-05-15T08:55:36.501Z,7.66
2017-05-15T08:58:04.225Z,7.36
2017-05-15T09:00:31.576Z,7.30
2017-05-15T09:02:58.907Z,8.46
2017-05-15T09:05:26.182Z,8.10
2017-05-15T09:07:53.542Z,10.22
2017-05-15T09:10:21.006Z,8.08
2017-05-15T09:12:48.278Z,6.78
2017-05-15T09:15:15.610Z,7.50
2017-05-15T09:17:42.926Z,8.52
2017-05-15T09:20:10.197Z,7.34
2017-05-15T09:22:37.077Z,6.88
2017-05-15T09:25:04.410Z,5.90
2017-05-15T09:27:31.363Z,6.84
2017-05-15T09:29:58.722Z,5.02
2017-05-15T09:32:26.072Z,4.70
2017-05-15T09:34:53.346Z,5.66
2017-05-15T09:37:20.622Z,6.60
2017-05-15T09:39:47.930Z,5.42
2017-05-15T09:42:15.296Z,5.24
2017-05-15T09:44:42.688Z,5.32
2017-05-15T09:47:09.589Z,4.60
2017-05-15T09:49:36.910Z,4.72
2017-05-15T09:52:04.550Z,4.64
2017-05-15T09:54:31.869Z,4.40
2017-05-15T09:56:59.206Z,5.20
2017-05-15T09:59:26.486Z,5.26
2017-05-15T10:01:53.761Z,5.32
2017-05-15T10:04:21.447Z,5.26
2017-05-15T10:06:48.717Z,5.50
2017-05-15T10:09:15.997Z,4.74
2017-05-15T10:11:43.328Z,5.66
2017-05-15T10:14:10.611Z,3.38
2017-05-15T10:16:37.953Z,3.56
2017-05-15T10:19:05.280Z,3.22
2017-05-15T10:21:32.561Z,3.98
2017-05-15T10:23:59.833Z,2.84
2017-05-15T10:26:27.169Z,3.90
2017-05-15T10:28:54.121Z,3.38
2017-05-15T10:31:21.478Z,3.46
2017-05-15T10:33:48.789Z,3.28
2017-05-15T10:36:16.438Z,3.14
2017-05-15T10:38:43.330Z,3.70
2017-05-15T10:41:10.663Z,4.26
2017-05-15T10:43:37.541Z,3.10
2017-05-15T10:46:04.894Z,6.32
2017-05-15T10:48:32.219Z,3.58
2017-05-15T10:50:59.614Z,3.78
2017-05-15T10:53:26.955Z,3.70
2017-05-15T10:55:54.281Z,3.48
2017-05-15T10:58:21.607Z,7.84
2017-05-15T11:00:48.514Z,4.38
2017-05-15T11:03:15.833Z,4.38
2017-05-15T11:05:43.489Z,6.04
2017-05-15T11:08:10.376Z,3.56
2017-05-15T11:10:37.726Z,3.70
2017-05-15T11:13:05.001Z,5.72
2017-05-15T11:15:32.281Z,2.84
2017-05-15T11:17:59.638Z,3.20
2017-05-15T11:20:27.294Z,5.20
2017-05-15T11:22:54.577Z,2.28
2017-05-15T11:25:21.897Z,2.68
2017-05-15T11:27:49.173Z,2.84
2017-05-15T11:30:16.819Z,3.84
2017-05-15T11:32:44.137Z,2.66
2017-05-15T11:35:11.422Z,2.46
2017-05-15T11:37:38.693Z,3.94
2017-05-15T11:40:06.389Z,2.02
2017-05-15T11:42:33.298Z,2.00
2017-05-15T11:45:00.580Z,3.32
2017-05-15T11:47:27.902Z,2.22
2017-05-15T11:49:55.181Z,2.92
2017-05-15T11:52:22.888Z,4.40
2017-05-15T11:54:50.233Z,3.88
2017-05-15T11:57:17.518Z,4.92
2017-05-15T11:59:44.851Z,2.38
2017-05-15T12:02:11.798Z,3.26
2017-05-15T12:04:39.082Z,2.82
2017-05-15T12:07:06.401Z,2.88
2017-05-15T12:09:33.737Z,2.24
2017-05-15T12:12:01.014Z,2.68
2017-05-15T12:14:28.373Z,2.84
2017-05-15T12:16:55.714Z,2.24
2017-05-15T12:19:23.087Z,2.40
2017-05-15T12:21:50.373Z,2.08
2017-05-15T12:24:17.693Z,1.90
2017-05-15T12:26:44.986Z,5.52
2017-05-15T12:29:11.867Z,3.10
2017-05-15T12:31:39.288Z,2.38
2017-05-15T12:34:06.161Z,2.34
2017-05-15T12:36:33.455Z,4.06
2017-05-15T12:39:00.781Z,1.90
2017-05-15T12:41:28.074Z,2.30
2017-05-15T12:43:55.357Z,1.98
2017-05-15T12:46:22.679Z,2.80
2017-05-15T12:48:49.959Z,2.54
2017-05-15T12:51:17.242Z,1.76
2017-05-15T12:53:44.946Z,2.84
2017-05-15T12:56:12.268Z,2.02
2017-05-15T12:58:39.582Z,5.62
2017-05-15T13:01:06.949Z,1.74
2017-05-15T13:03:33.851Z,1.84
2017-05-15T13:06:01.189Z,1.50
2017-05-15T13:08:28.757Z,1.66
2017-05-15T13:10:56.038Z,2.20
2017-05-15T13:13:23.373Z,2.80
2017-05-15T13:15:50.728Z,3.28
2017-05-15T13:18:18.009Z,1.60
2017-05-15T13:20:45.285Z,1.90
2017-05-15T13:23:12.625Z,4.34
2017-05-15T13:25:39.907Z,1.66
2017-05-15T13:28:07.554Z,2.26
2017-05-15T13:30:34.996Z,3.34
2017-05-15T13:33:01.877Z,1.64
2017-05-15T13:35:29.534Z,2.66
2017-05-15T13:37:57.222Z,1.96
2017-05-15T13:40:24.498Z,1.14
2017-05-15T13:42:51.783Z,0.98
2017-05-15T13:45:19.498Z,1.40
2017-05-15T13:47:46.778Z,1.38
2017-05-15T13:50:14.060Z,2.28
2017-05-15T13:52:41.421Z,1.08
2017-05-15T13:55:09.159Z,1.34
2017-05-15T13:57:36.482Z,2.70
2017-05-15T14:00:03.802Z,2.54
2017-05-15T14:02:31.078Z,1.04
2017-05-15T14:04:58.011Z,1.08
2017-05-15T14:07:25.314Z,2.00
2017-05-15T14:09:52.593Z,2.40
2017-05-15T14:12:19.900Z,2.02
2017-05-15T14:14:47.232Z,1.76
2017-05-15T14:17:14.112Z,1.28
2017-05-15T14:19:41.482Z,1.88
2017-05-15T14:22:08.837Z,2.00
2017-05-15T14:24:36.218Z,1.88
2017-05-15T14:27:03.564Z,2.30
2017-05-15T14:29:30.898Z,2.24
2017-05-15T14:31:58.189Z,1.86
2017-05-15T14:34:25.523Z,3.02
2017-05-15T14:36:52.806Z,1.76
2017-05-15T14:39:20.098Z,1.04
2017-05-15T14:41:47.450Z,1.20
2017-05-15T14:44:14.742Z,1.26
2017-05-15T14:46:41.670Z,1.34
2017-05-15T14:49:09.235Z,1.72
2017-05-15T14:51:36.596Z,1.72
2017-05-15T14:54:03.958Z,3.28
2017-05-15T14:56:31.301Z,1.88
2017-05-15T14:58:58.665Z,1.98
2017-05-15T15:01:26.013Z,2.90
2017-05-15T15:03:53.408Z,1.90
2017-05-15T15:06:20.690Z,0.86
2017-05-15T15:08:47.962Z,1.56
2017-05-15T15:11:15.342Z,2.24
2017-05-15T15:13:42.694Z,1.28
2017-05-15T15:16:10.070Z,1.38
2017-05-15T15:18:37.437Z,1.86
2017-05-15T15:21:04.762Z,5.96
2017-05-15T15:23:32.043Z,1.30
2017-05-15T15:25:59.370Z,1.90
2017-05-15T15:28:26.645Z,1.28
2017-05-15T15:30:53.981Z,2.02
2017-05-15T15:33:21.318Z,1.94
2017-05-15T15:35:48.621Z,1.64
2017-05-15T15:38:15.921Z,1.60
2017-05-15T15:40:43.265Z,1.56
2017-05-15T15:43:10.539Z,1.84
2017-05-15T15:45:37.817Z,4.46
2017-05-15T15:48:05.176Z,1.08
2017-05-15T15:50:32.515Z,1.76
2017-05-15T15:52:59.880Z,1.32
2017-05-15T15:55:27.275Z,1.82
2017-05-15T15:57:54.561Z,1.94
2017-05-15T16:00:21.510Z,0.88
2017-05-15T16:02:48.835Z,1.32
2017-05-15T16:05:16.546Z,2.52
2017-05-15T16:07:43.850Z,2.62
2017-05-15T16:10:11.550Z,1.92
2017-05-15T16:12:38.861Z,1.20
2017-05-15T16:15:06.138Z,1.48
2017-05-15T16:17:33.845Z,1.66
2017-05-15T16:20:01.169Z,2.38
2017-05-15T16:22:28.444Z,1.58
2017-05-15T16:24:55.801Z,3.46
2017-05-15T16:27:23.165Z,2.00
2017-05-15T16:29:50.532Z,1.32
2017-05-15T16:32:17.805Z,1.98
2017-05-15T16:34:45.137Z,1.36
2017-05-15T16:37:12.411Z,2.08
2017-05-15T16:39:39.687Z,1.64
2017-05-15T16:42:07.381Z,0.66
2017-05-15T16:44:34.680Z,1.38
2017-05-15T16:47:02.009Z,1.16
2017-05-15T16:49:29.365Z,2.10
2017-05-15T16:51:56.722Z,3.52
2017-05-15T16:54:24.098Z,1.88
2017-05-15T16:56:51.429Z,1.92
2017-05-15T16:59:18.702Z,1.14
2017-05-15T17:01:45.986Z,2.46
2017-05-15T17:04:13.678Z,1.70
2017-05-15T17:06:40.950Z,1.20
2017-05-15T17:09:08.253Z,1.88
2017-05-15T17:11:35.675Z,2.30
2017-05-15T17:14:03.070Z,1.30
2017-05-15T17:16:30.423Z,2.18
2017-05-15T17:18:57.749Z,1.76
2017-05-15T17:21:25.135Z,0.70
2017-05-15T17:23:52.028Z,2.10
2017-05-15T17:26:19.414Z,2.68
2017-05-15T17:28:46.703Z,1.32
2017-05-15T17:31:14.422Z,1.32
2017-05-15T17:33:41.775Z,2.30
2017-05-15T17:36:08.661Z,1.22
2017-05-15T17:38:35.959Z,1.52
2017-05-15T17:41:02.894Z,2.30
2017-05-15T17:43:30.234Z,1.40
2017-05-15T17:45:57.890Z,1.32
2017-05-15T17:48:25.595Z,1.44
2017-05-15T17:50:52.911Z,1.62
2017-05-15T17:53:20.175Z,2.14
2017-05-15T17:55:47.594Z,3.08
2017-05-15T17:58:14.942Z,1.38
2017-05-15T18:00:42.226Z,1.22
2017-05-15T18:03:09.909Z,2.12
2017-05-15T18:05:36.887Z,2.52
2017-05-15T18:08:04.161Z,2.00
2017-05-15T18:10:31.502Z,1.50
2017-05-15T18:12:58.793Z,1.24
2017-05-15T18:15:26.074Z,1.96
2017-05-15T18:17:53.426Z,2.28
2017-05-15T18:20:20.702Z,1.74
2017-05-15T18:22:47.983Z,2.24
2017-05-15T18:25:15.334Z,1.92
2017-05-15T18:27:42.634Z,2.38
2017-05-15T18:30:10.282Z,2.04
2017-05-15T18:32:37.206Z,1.20
2017-05-15T18:35:04.490Z,2.50
2017-05-15T18:37:31.393Z,1.94
2017-05-15T18:39:58.810Z,1.32
2017-05-15T18:42:25.689Z,2.50
2017-05-15T18:44:53.022Z,1.56
2017-05-15T18:47:19.903Z,2.20
2017-05-15T18:49:47.262Z,1.86
2017-05-15T18:52:14.175Z,1.34
2017-05-15T18:54:41.459Z,3.38
2017-05-15T18:57:08.787Z,1.68
2017-05-15T18:59:36.067Z,1.78
2017-05-15T19:02:03.352Z,2.56
2017-05-15T19:04:30.683Z,2.46
2017-05-15T19:06:57.602Z,1.92
2017-05-15T19:09:24.914Z,1.52
2017-05-15T19:11:52.635Z,2.02
2017-05-15T19:14:19.921Z,1.98
2017-05-15T19:16:47.703Z,4.20
2017-05-15T19:19:15.043Z,2.56
2017-05-15T19:21:42.325Z,2.68
2017-05-15T19:24:09.971Z,2.38
2017-05-15T19:26:36.896Z,2.18
2017-05-15T19:29:04.178Z,2.10
2017-05-15T19:31:31.819Z,2.62
2017-05-15T19:33:59.134Z,2.12
2017-05-15T19:36:26.015Z,2.10
2017-05-15T19:38:53.299Z,2.24
2017-05-15T19:41:20.990Z,3.04
2017-05-15T19:43:48.267Z,2.58
2017-05-15T19:46:15.602Z,3.48
2017-05-15T19:48:42.951Z,4.36
2017-05-15T19:51:10.231Z,3.20
2017-05-15T19:53:37.527Z,2.42
2017-05-15T19:56:04.881Z,2.24
2017-05-15T19:58:32.535Z,2.52
2017-05-15T20:00:59.818Z,1.80
2017-05-15T20:03:27.207Z,3.28
2017-05-15T20:05:54.493Z,4.96
2017-05-15T20:08:21.809Z,2.28
2017-05-15T20:10:48.739Z,2.72
2017-05-15T20:13:16.012Z,3.92
2017-05-15T20:15:43.294Z,2.20
2017-05-15T20:18:10.622Z,2.92
2017-05-15T20:20:37.899Z,2.68
2017-05-15T20:23:05.173Z,3.80
2017-05-15T20:25:32.499Z,3.08
2017-05-15T20:27:59.814Z,2.52
2017-05-15T20:30:26.730Z,3.44
2017-05-15T20:32:54.419Z,3.76
2017-05-15T20:35:21.713Z,2.80
2017-05-15T20:37:49.058Z,2.08
2017-05-15T20:40:16.341Z,2.22
2017-05-15T20:42:43.622Z,3.28
2017-05-15T20:45:11.322Z,3.62
2017-05-15T20:47:38.594Z,5.28
2017-05-15T20:50:05.868Z,2.36
2017-05-15T20:52:33.344Z,2.88
2017-05-15T20:55:00.622Z,3.12
2017-05-15T20:57:27.894Z,3.16
2017-05-15T20:59:55.218Z,3.60
2017-05-15T21:02:22.869Z,4.98
2017-05-15T21:04:50.185Z,3.10
2017-05-15T21:07:17.515Z,2.28
2017-05-15T21:09:44.802Z,2.32
2017-05-15T21:12:12.086Z,6.62
2017-05-15T21:14:39.398Z,1.70
2017-05-15T21:17:06.673Z,2.00
2017-05-15T21:19:34.006Z,2.30
2017-05-15T21:22:01.281Z,5.56
2017-05-15T21:24:28.630Z,2.26
2017-05-15T21:26:55.959Z,2.04
2017-05-15T21:29:23.238Z,4.52
2017-05-15T21:31:50.599Z,2.44
2017-05-15T21:34:18.058Z,2.92
2017-05-15T21:36:45.505Z,4.32
2017-05-15T21:39:12.866Z,3.16
2017-05-15T21:41:40.185Z,2.42
2017-05-15T21:44:07.475Z,2.42
2017-05-15T21:46:34.750Z,2.66
2017-05-15T21:49:02.082Z,1.72
2017-05-15T21:51:29.441Z,3.52
2017-05-15T21:53:56.338Z,3.38
2017-05-15T21:56:24.030Z,2.24
2017-05-15T21:58:51.311Z,2.30
2017-05-15T22:01:18.593Z,2.20
2017-05-15T22:03:46.320Z,5.42
2017-05-15T22:06:13.606Z,3.46
2017-05-15T22:08:40.890Z,4.32
2017-05-15T22:11:07.822Z,3.84
2017-05-15T22:13:34.727Z,3.36
2017-05-15T22:16:02.121Z,2.30
2017-05-15T22:18:29.437Z,2.00
2017-05-15T22:20:56.793Z,2.38
2017-05-15T22:23:24.077Z,3.70
2017-05-15T22:25:51.397Z,2.52
2017-05-15T22:28:18.685Z,1.80
2017-05-15T22:30:46.006Z,2.66
2017-05-15T22:33:12.950Z,2.64
2017-05-15T22:35:40.318Z,3.96
2017-05-15T22:38:07.609Z,3.00
2017-05-15T22:40:35.425Z,2.82
2017-05-15T22:43:02.801Z,2.38
2017-05-15T22:45:30.080Z,2.76
2017-05-15T22:47:57.408Z,2.80
2017-05-15T22:50:24.701Z,3.02
2017-05-15T22:52:52.418Z,2.88
2017-05-15T22:55:19.775Z,4.00
2017-05-15T22:57:47.060Z,3.42
2017-05-15T23:00:14.347Z,2.50
2017-05-15T23:02:41.681Z,2.56
2017-05-15T23:05:08.574Z,2.72
2017-05-15T23:07:35.849Z,2.34
2017-05-15T23:10:03.192Z,2.60
2017-05-15T23:12:30.473Z,3.34
2017-05-15T23:14:57.389Z,2.52
2017-05-15T23:17:24.714Z,2.68
2017-05-15T23:19:51.991Z,4.90
2017-05-15T23:22:19.279Z,4.52
2017-05-15T23:24:46.625Z,2.94
2017-05-15T23:27:13.971Z,3.38
2017-05-15T23:29:41.263Z,2.96
2017-05-15T23:32:08.985Z,3.44
2017-05-15T23:34:36.314Z,3.26
2017-05-15T23:37:03.594Z,3.28
2017-05-15T23:39:30.922Z,3.26
2017-05-15T23:41:58.305Z,3.30
2017-05-15T23:44:25.594Z,3.66
2017-05-15T23:46:52.914Z,4.24
2017-05-15T23:49:20.213Z,3.10
2017-05-15T23:51:47.870Z,2.70
2017-05-15T23:54:15.185Z,3.46
2017-05-15T23:56:42.077Z,3.28
2017-05-15T23:59:09.799Z,3.08
